sensor_id;sensor_type;location;lat;lon;timestamp;P1;durP1;ratioP1;P2;durP2;ratioP2
83026;SDS011;72842;56.038;12.706;2024-03-02T00:00:00;51.50;;;26.42;;
83026;SDS011;72842;56.038;12.706;2024-03-02T00:02:25;47.05;;;26.88;;
83026;SDS011;72842;56.038;12.706;2024-03-02T00:04:51;47.40;;;25.42;;
83026;SDS011;72842;56.038;12.706;2024-03-02T00:07:16;45.08;;;24.13;;
83026;SDS011;72842;56.038;12.706;2024-03-02T00:09:42;49.53;;;27.80;;
83026;SDS011;72842;56.038;12.706;2024-03-02T00:12:08;52.35;;;28.42;;
83026;SDS011;72842;56.038;12.706;2024-03-02T00:14:36;44.35;;;25.17;;
83026;SDS011;72842;56.038;12.706;2024-03-02T00:17:02;48.03;;;26.25;;
83026;SDS011;72842;56.038;12.706;2024-03-02T00:19:27;43.85;;;23.30;;
83026;SDS011;72842;56.038;12.706;2024-03-02T00:21:53;46.20;;;25.30;;
83026;SDS011;72842;56.038;12.706;2024-03-02T00:24:32;47.40;;;28.05;;
83026;SDS011;72842;56.038;12.706;2024-03-02T00:26:59;45.58;;;26.50;;
83026;SDS011;72842;56.038;12.706;2024-03-02T00:29:26;48.53;;;24.50;;
83026;SDS011;72842;56.038;12.706;2024-03-02T00:31:52;47.92;;;26.42;;
83026;SDS011;72842;56.038;12.706;2024-03-02T00:34:19;48.85;;;23.73;;
83026;SDS011;72842;56.038;12.706;2024-03-02T00:36:44;46.63;;;26.58;;
83026;SDS011;72842;56.038;12.706;2024-03-02T00:39:11;49.65;;;24.52;;
83026;SDS011;72842;56.038;12.706;2024-03-02T00:41:38;51.25;;;26.75;;
83026;SDS011;72842;56.038;12.706;2024-03-02T00:44:07;46.17;;;23.77;;
83026;SDS011;72842;56.038;12.706;2024-03-02T00:46:40;42.17;;;23.83;;
83026;SDS011;72842;56.038;12.706;2024-03-02T00:49:17;48.60;;;24.52;;
83026;SDS011;72842;56.038;12.706;2024-03-02T00:51:46;47.85;;;26.38;;
83026;SDS011;72842;56.038;12.706;2024-03-02T00:54:14;49.38;;;24.60;;
83026;SDS011;72842;56.038;12.706;2024-03-02T00:56:41;48.58;;;24.25;;
83026;SDS011;72842;56.038;12.706;2024-03-02T00:59:07;42.78;;;26.08;;
83026;SDS011;72842;56.038;12.706;2024-03-02T01:01:33;47.40;;;25.70;;
83026;SDS011;72842;56.038;12.706;2024-03-02T01:03:59;47.30;;;25.67;;
83026;SDS011;72842;56.038;12.706;2024-03-02T01:06:24;42.60;;;25.77;;
83026;SDS011;72842;56.038;12.706;2024-03-02T01:08:50;44.40;;;24.40;;
83026;SDS011;72842;56.038;12.706;2024-03-02T01:11:16;42.95;;;26.55;;
83026;SDS011;72842;56.038;12.706;2024-03-02T01:13:43;41.88;;;23.17;;
83026;SDS011;72842;56.038;12.706;2024-03-02T01:16:09;46.22;;;23.98;;
83026;SDS011;72842;56.038;12.706;2024-03-02T01:18:35;47.63;;;24.60;;
83026;SDS011;72842;56.038;12.706;2024-03-02T01:21:00;47.30;;;26.63;;
83026;SDS011;72842;56.038;12.706;2024-03-02T01:23:26;46.67;;;23.02;;
83026;SDS011;72842;56.038;12.706;2024-03-02T01:25:52;48.13;;;24.50;;
83026;SDS011;72842;56.038;12.706;2024-03-02T01:28:18;41.90;;;25.83;;
83026;SDS011;72842;56.038;12.706;2024-03-02T01:30:45;45.97;;;23.65;;
83026;SDS011;72842;56.038;12.706;2024-03-02T01:33:11;44.75;;;24.35;;
83026;SDS011;72842;56.038;12.706;2024-03-02T01:35:36;45.97;;;24.63;;
83026;SDS011;72842;56.038;12.706;2024-03-02T01:38:02;43.55;;;23.85;;
83026;SDS011;72842;56.038;12.706;2024-03-02T01:40:28;43.72;;;24.42;;
83026;SDS011;72842;56.038;12.706;2024-03-02T01:42:54;41.25;;;23.92;;
83026;SDS011;72842;56.038;12.706;2024-03-02T01:45:20;45.65;;;23.88;;
83026;SDS011;72842;56.038;12.706;2024-03-02T01:47:46;42.88;;;24.25;;
83026;SDS011;72842;56.038;12.706;2024-03-02T01:50:12;44.05;;;23.80;;
83026;SDS011;72842;56.038;12.706;2024-03-02T01:52:38;42.95;;;22.88;;
83026;SDS011;72842;56.038;12.706;2024-03-02T01:55:04;41.88;;;23.88;;
83026;SDS011;72842;56.038;12.706;2024-03-02T01:57:34;46.03;;;24.92;;
83026;SDS011;72842;56.038;12.706;2024-03-02T01:59:59;42.70;;;22.23;;
83026;SDS011;72842;56.038;12.706;2024-03-02T02:02:25;41.38;;;23.50;;
83026;SDS011;72842;56.038;12.706;2024-03-02T02:04:51;41.78;;;24.02;;
83026;SDS011;72842;56.038;12.706;2024-03-02T02:07:17;43.88;;;23.77;;
83026;SDS011;72842;56.038;12.706;2024-03-02T02:09:42;44.10;;;24.20;;
83026;SDS011;72842;56.038;12.706;2024-03-02T02:12:09;40.85;;;24.70;;
83026;SDS011;72842;56.038;12.706;2024-03-02T02:14:35;46.53;;;24.50;;
83026;SDS011;72842;56.038;12.706;2024-03-02T02:17:01;40.42;;;23.02;;
83026;SDS011;72842;56.038;12.706;2024-03-02T02:19:27;44.58;;;24.83;;
83026;SDS011;72842;56.038;12.706;2024-03-02T02:21:52;45.90;;;25.10;;
83026;SDS011;72842;56.038;12.706;2024-03-02T02:24:17;45.75;;;24.70;;
83026;SDS011;72842;56.038;12.706;2024-03-02T02:26:43;45.72;;;24.23;;
83026;SDS011;72842;56.038;12.706;2024-03-02T02:29:09;49.38;;;24.00;;
83026;SDS011;72842;56.038;12.706;2024-03-02T02:31:40;45.78;;;23.98;;
83026;SDS011;72842;56.038;12.706;2024-03-02T02:34:06;40.80;;;21.60;;
83026;SDS011;72842;56.038;12.706;2024-03-02T02:36:33;47.92;;;24.83;;
83026;SDS011;72842;56.038;12.706;2024-03-02T02:39:00;44.72;;;25.17;;
83026;SDS011;72842;56.038;12.706;2024-03-02T02:41:31;42.63;;;24.55;;
83026;SDS011;72842;56.038;12.706;2024-03-02T02:43:57;44.45;;;23.88;;
83026;SDS011;72842;56.038;12.706;2024-03-02T02:46:22;48.28;;;24.70;;
83026;SDS011;72842;56.038;12.706;2024-03-02T02:48:48;44.17;;;25.45;;
83026;SDS011;72842;56.038;12.706;2024-03-02T02:51:14;45.88;;;24.58;;
83026;SDS011;72842;56.038;12.706;2024-03-02T02:53:39;47.30;;;25.10;;
83026;SDS011;72842;56.038;12.706;2024-03-02T02:56:08;47.50;;;26.90;;
83026;SDS011;72842;56.038;12.706;2024-03-02T02:58:33;50.80;;;26.67;;
83026;SDS011;72842;56.038;12.706;2024-03-02T03:00:59;50.42;;;27.88;;
83026;SDS011;72842;56.038;12.706;2024-03-02T03:03:24;47.53;;;28.23;;
83026;SDS011;72842;56.038;12.706;2024-03-02T03:05:50;52.15;;;25.08;;
83026;SDS011;72842;56.038;12.706;2024-03-02T03:08:15;49.88;;;25.90;;
83026;SDS011;72842;56.038;12.706;2024-03-02T03:10:41;48.40;;;25.80;;
83026;SDS011;72842;56.038;12.706;2024-03-02T03:13:07;52.47;;;28.23;;
83026;SDS011;72842;56.038;12.706;2024-03-02T03:15:35;46.85;;;24.55;;
83026;SDS011;72842;56.038;12.706;2024-03-02T03:18:01;49.65;;;28.58;;
83026;SDS011;72842;56.038;12.706;2024-03-02T03:20:30;50.67;;;26.35;;
83026;SDS011;72842;56.038;12.706;2024-03-02T03:22:56;48.30;;;26.75;;
83026;SDS011;72842;56.038;12.706;2024-03-02T03:25:22;48.78;;;28.10;;
83026;SDS011;72842;56.038;12.706;2024-03-02T03:27:48;44.38;;;25.63;;
83026;SDS011;72842;56.038;12.706;2024-03-02T03:30:14;45.97;;;25.73;;
83026;SDS011;72842;56.038;12.706;2024-03-02T03:32:39;49.17;;;27.00;;
83026;SDS011;72842;56.038;12.706;2024-03-02T03:35:05;50.22;;;25.88;;
83026;SDS011;72842;56.038;12.706;2024-03-02T03:37:31;44.13;;;26.75;;
83026;SDS011;72842;56.038;12.706;2024-03-02T03:39:58;47.03;;;28.02;;
83026;SDS011;72842;56.038;12.706;2024-03-02T03:42:24;49.40;;;27.23;;
83026;SDS011;72842;56.038;12.706;2024-03-02T03:44:50;44.78;;;26.92;;
83026;SDS011;72842;56.038;12.706;2024-03-02T03:47:15;50.22;;;26.35;;
83026;SDS011;72842;56.038;12.706;2024-03-02T03:49:41;43.85;;;24.77;;
83026;SDS011;72842;56.038;12.706;2024-03-02T03:52:06;42.95;;;25.08;;
83026;SDS011;72842;56.038;12.706;2024-03-02T03:54:32;44.78;;;25.50;;
83026;SDS011;72842;56.038;12.706;2024-03-02T03:56:57;44.13;;;26.20;;
83026;SDS011;72842;56.038;12.706;2024-03-02T03:59:22;48.05;;;25.48;;
83026;SDS011;72842;56.038;12.706;2024-03-02T04:01:48;44.03;;;25.02;;
83026;SDS011;72842;56.038;12.706;2024-03-02T04:04:14;46.45;;;26.13;;
83026;SDS011;72842;56.038;12.706;2024-03-02T04:06:39;43.15;;;27.98;;
83026;SDS011;72842;56.038;12.706;2024-03-02T04:09:05;44.38;;;26.90;;
83026;SDS011;72842;56.038;12.706;2024-03-02T04:11:30;42.35;;;24.85;;
83026;SDS011;72842;56.038;12.706;2024-03-02T04:13:56;46.13;;;26.65;;
83026;SDS011;72842;56.038;12.706;2024-03-02T04:16:21;44.03;;;26.58;;
83026;SDS011;72842;56.038;12.706;2024-03-02T04:18:47;44.80;;;26.02;;
83026;SDS011;72842;56.038;12.706;2024-03-02T04:21:13;43.33;;;27.10;;
83026;SDS011;72842;56.038;12.706;2024-03-02T04:23:39;42.97;;;25.80;;
83026;SDS011;72842;56.038;12.706;2024-03-02T04:26:04;45.15;;;24.98;;
83026;SDS011;72842;56.038;12.706;2024-03-02T04:28:29;45.55;;;27.98;;
83026;SDS011;72842;56.038;12.706;2024-03-02T04:30:55;43.47;;;25.05;;
83026;SDS011;72842;56.038;12.706;2024-03-02T04:33:20;44.90;;;26.42;;
83026;SDS011;72842;56.038;12.706;2024-03-02T04:35:46;43.67;;;28.00;;
83026;SDS011;72842;56.038;12.706;2024-03-02T04:38:11;50.53;;;29.35;;
83026;SDS011;72842;56.038;12.706;2024-03-02T04:40:37;46.95;;;27.73;;
83026;SDS011;72842;56.038;12.706;2024-03-02T04:43:02;48.10;;;26.60;;
83026;SDS011;72842;56.038;12.706;2024-03-02T04:45:28;47.75;;;27.58;;
83026;SDS011;72842;56.038;12.706;2024-03-02T04:47:54;53.28;;;32.00;;
83026;SDS011;72842;56.038;12.706;2024-03-02T04:50:19;49.28;;;27.17;;
83026;SDS011;72842;56.038;12.706;2024-03-02T04:52:45;50.55;;;27.42;;
83026;SDS011;72842;56.038;12.706;2024-03-02T04:55:10;48.85;;;30.85;;
83026;SDS011;72842;56.038;12.706;2024-03-02T04:57:42;50.17;;;29.75;;
83026;SDS011;72842;56.038;12.706;2024-03-02T05:00:08;52.38;;;29.83;;
83026;SDS011;72842;56.038;12.706;2024-03-02T05:02:34;47.35;;;31.23;;
83026;SDS011;72842;56.038;12.706;2024-03-02T05:05:00;50.88;;;29.30;;
83026;SDS011;72842;56.038;12.706;2024-03-02T05:07:26;48.03;;;28.80;;
83026;SDS011;72842;56.038;12.706;2024-03-02T05:09:51;53.55;;;32.75;;
83026;SDS011;72842;56.038;12.706;2024-03-02T05:12:17;50.97;;;31.58;;
83026;SDS011;72842;56.038;12.706;2024-03-02T05:15:01;51.38;;;29.67;;
83026;SDS011;72842;56.038;12.706;2024-03-02T05:17:27;55.22;;;28.98;;
83026;SDS011;72842;56.038;12.706;2024-03-02T05:19:52;60.67;;;34.17;;
83026;SDS011;72842;56.038;12.706;2024-03-02T05:22:17;49.72;;;30.88;;
83026;SDS011;72842;56.038;12.706;2024-03-02T05:24:43;54.63;;;30.70;;
83026;SDS011;72842;56.038;12.706;2024-03-02T05:27:08;57.75;;;32.20;;
83026;SDS011;72842;56.038;12.706;2024-03-02T05:29:34;58.70;;;32.50;;
83026;SDS011;72842;56.038;12.706;2024-03-02T05:31:59;55.63;;;30.45;;
83026;SDS011;72842;56.038;12.706;2024-03-02T05:34:25;57.88;;;32.65;;
83026;SDS011;72842;56.038;12.706;2024-03-02T05:36:50;51.33;;;30.75;;
83026;SDS011;72842;56.038;12.706;2024-03-02T05:39:16;56.45;;;31.17;;
83026;SDS011;72842;56.038;12.706;2024-03-02T05:41:41;58.63;;;33.80;;
83026;SDS011;72842;56.038;12.706;2024-03-02T05:44:06;59.20;;;32.55;;
83026;SDS011;72842;56.038;12.706;2024-03-02T05:46:32;56.95;;;34.92;;
83026;SDS011;72842;56.038;12.706;2024-03-02T05:48:58;59.83;;;32.53;;
83026;SDS011;72842;56.038;12.706;2024-03-02T05:51:27;58.83;;;33.20;;
83026;SDS011;72842;56.038;12.706;2024-03-02T05:53:52;61.53;;;35.38;;
83026;SDS011;72842;56.038;12.706;2024-03-02T05:56:18;56.10;;;32.42;;
83026;SDS011;72842;56.038;12.706;2024-03-02T05:58:43;65.13;;;35.83;;
83026;SDS011;72842;56.038;12.706;2024-03-02T06:01:09;60.10;;;36.53;;
83026;SDS011;72842;56.038;12.706;2024-03-02T06:03:34;61.03;;;34.83;;
83026;SDS011;72842;56.038;12.706;2024-03-02T06:05:59;59.63;;;35.30;;
83026;SDS011;72842;56.038;12.706;2024-03-02T06:08:25;58.97;;;33.95;;
83026;SDS011;72842;56.038;12.706;2024-03-02T06:10:50;64.15;;;33.35;;
83026;SDS011;72842;56.038;12.706;2024-03-02T06:13:16;61.28;;;34.17;;
83026;SDS011;72842;56.038;12.706;2024-03-02T06:15:41;61.45;;;34.65;;
83026;SDS011;72842;56.038;12.706;2024-03-02T06:18:06;61.33;;;35.55;;
83026;SDS011;72842;56.038;12.706;2024-03-02T06:20:33;63.17;;;34.30;;
83026;SDS011;72842;56.038;12.706;2024-03-02T06:22:58;63.33;;;36.75;;
83026;SDS011;72842;56.038;12.706;2024-03-02T06:25:24;60.92;;;35.50;;
83026;SDS011;72842;56.038;12.706;2024-03-02T06:27:49;62.60;;;35.83;;
83026;SDS011;72842;56.038;12.706;2024-03-02T06:30:14;64.05;;;33.88;;
83026;SDS011;72842;56.038;12.706;2024-03-02T06:32:40;64.68;;;35.85;;
83026;SDS011;72842;56.038;12.706;2024-03-02T06:35:06;65.32;;;38.53;;
83026;SDS011;72842;56.038;12.706;2024-03-02T06:37:35;62.47;;;35.97;;
83026;SDS011;72842;56.038;12.706;2024-03-02T06:40:00;65.18;;;37.97;;
83026;SDS011;72842;56.038;12.706;2024-03-02T06:42:26;60.60;;;33.55;;
83026;SDS011;72842;56.038;12.706;2024-03-02T06:44:51;60.75;;;34.83;;
83026;SDS011;72842;56.038;12.706;2024-03-02T06:47:17;63.03;;;35.03;;
83026;SDS011;72842;56.038;12.706;2024-03-02T06:49:42;61.63;;;34.13;;
83026;SDS011;72842;56.038;12.706;2024-03-02T06:52:08;64.95;;;35.25;;
83026;SDS011;72842;56.038;12.706;2024-03-02T06:54:33;63.65;;;35.20;;
83026;SDS011;72842;56.038;12.706;2024-03-02T06:57:00;64.82;;;37.90;;
83026;SDS011;72842;56.038;12.706;2024-03-02T06:59:25;61.47;;;35.60;;
83026;SDS011;72842;56.038;12.706;2024-03-02T07:01:50;64.60;;;34.90;;
83026;SDS011;72842;56.038;12.706;2024-03-02T07:04:16;63.10;;;33.08;;
83026;SDS011;72842;56.038;12.706;2024-03-02T07:06:41;60.42;;;35.97;;
83026;SDS011;72842;56.038;12.706;2024-03-02T07:09:07;64.82;;;35.58;;
83026;SDS011;72842;56.038;12.706;2024-03-02T07:11:36;63.92;;;36.90;;
83026;SDS011;72842;56.038;12.706;2024-03-02T07:14:01;63.65;;;35.97;;
83026;SDS011;72842;56.038;12.706;2024-03-02T07:16:27;56.45;;;32.92;;
83026;SDS011;72842;56.038;12.706;2024-03-02T07:18:58;60.50;;;34.05;;
83026;SDS011;72842;56.038;12.706;2024-03-02T07:21:24;59.55;;;32.60;;
83026;SDS011;72842;56.038;12.706;2024-03-02T07:23:49;58.78;;;32.38;;
83026;SDS011;72842;56.038;12.706;2024-03-02T07:26:15;56.58;;;32.17;;
83026;SDS011;72842;56.038;12.706;2024-03-02T07:28:43;56.92;;;32.78;;
83026;SDS011;72842;56.038;12.706;2024-03-02T07:31:09;54.85;;;30.45;;
83026;SDS011;72842;56.038;12.706;2024-03-02T07:33:35;51.33;;;32.75;;
83026;SDS011;72842;56.038;12.706;2024-03-02T07:36:00;52.85;;;32.13;;
83026;SDS011;72842;56.038;12.706;2024-03-02T07:38:27;51.28;;;30.67;;
83026;SDS011;72842;56.038;12.706;2024-03-02T07:40:53;52.35;;;32.65;;
83026;SDS011;72842;56.038;12.706;2024-03-02T07:43:19;50.20;;;29.77;;
83026;SDS011;72842;56.038;12.706;2024-03-02T07:45:45;52.65;;;30.60;;
83026;SDS011;72842;56.038;12.706;2024-03-02T07:48:11;49.42;;;31.48;;
83026;SDS011;72842;56.038;12.706;2024-03-02T07:50:37;45.55;;;28.70;;
83026;SDS011;72842;56.038;12.706;2024-03-02T07:53:04;45.05;;;28.45;;
83026;SDS011;72842;56.038;12.706;2024-03-02T07:55:33;45.83;;;27.15;;
83026;SDS011;72842;56.038;12.706;2024-03-02T07:57:59;45.97;;;30.98;;
83026;SDS011;72842;56.038;12.706;2024-03-02T08:00:25;39.83;;;26.35;;
83026;SDS011;72842;56.038;12.706;2024-03-02T08:02:51;43.20;;;26.85;;
83026;SDS011;72842;56.038;12.706;2024-03-02T08:05:17;41.80;;;26.63;;
83026;SDS011;72842;56.038;12.706;2024-03-02T08:07:44;41.65;;;25.30;;
83026;SDS011;72842;56.038;12.706;2024-03-02T08:10:10;38.08;;;26.50;;
83026;SDS011;72842;56.038;12.706;2024-03-02T08:12:36;38.95;;;27.33;;
83026;SDS011;72842;56.038;12.706;2024-03-02T08:15:01;37.40;;;24.58;;
83026;SDS011;72842;56.038;12.706;2024-03-02T08:17:27;35.72;;;25.98;;
83026;SDS011;72842;56.038;12.706;2024-03-02T08:19:52;37.72;;;24.88;;
83026;SDS011;72842;56.038;12.706;2024-03-02T08:22:18;31.52;;;21.90;;
83026;SDS011;72842;56.038;12.706;2024-03-02T08:24:44;29.45;;;21.02;;
83026;SDS011;72842;56.038;12.706;2024-03-02T08:27:10;30.08;;;21.20;;
83026;SDS011;72842;56.038;12.706;2024-03-02T08:29:35;29.40;;;21.38;;
83026;SDS011;72842;56.038;12.706;2024-03-02T08:32:01;29.55;;;21.23;;
83026;SDS011;72842;56.038;12.706;2024-03-02T08:34:26;32.58;;;23.13;;
83026;SDS011;72842;56.038;12.706;2024-03-02T08:36:51;30.52;;;20.98;;
83026;SDS011;72842;56.038;12.706;2024-03-02T08:39:17;29.65;;;20.88;;
83026;SDS011;72842;56.038;12.706;2024-03-02T08:41:45;29.02;;;21.67;;
83026;SDS011;72842;56.038;12.706;2024-03-02T08:44:11;28.45;;;20.85;;
83026;SDS011;72842;56.038;12.706;2024-03-02T08:46:37;26.60;;;20.55;;
83026;SDS011;72842;56.038;12.706;2024-03-02T08:49:02;28.38;;;21.77;;
83026;SDS011;72842;56.038;12.706;2024-03-02T08:51:28;23.65;;;18.80;;
83026;SDS011;72842;56.038;12.706;2024-03-02T08:53:53;25.88;;;20.05;;
83026;SDS011;72842;56.038;12.706;2024-03-02T08:56:19;26.08;;;19.73;;
83026;SDS011;72842;56.038;12.706;2024-03-02T08:58:46;27.00;;;20.27;;
83026;SDS011;72842;56.038;12.706;2024-03-02T09:01:12;25.67;;;18.08;;
83026;SDS011;72842;56.038;12.706;2024-03-02T09:03:37;25.92;;;18.50;;
83026;SDS011;72842;56.038;12.706;2024-03-02T09:06:03;27.00;;;19.50;;
83026;SDS011;72842;56.038;12.706;2024-03-02T09:08:29;24.42;;;18.13;;
83026;SDS011;72842;56.038;12.706;2024-03-02T09:10:54;23.75;;;19.38;;
83026;SDS011;72842;56.038;12.706;2024-03-02T09:13:21;22.45;;;17.20;;
83026;SDS011;72842;56.038;12.706;2024-03-02T09:15:47;24.95;;;18.70;;
83026;SDS011;72842;56.038;12.706;2024-03-02T09:18:13;25.13;;;17.48;;
83026;SDS011;72842;56.038;12.706;2024-03-02T09:20:38;23.75;;;17.27;;
83026;SDS011;72842;56.038;12.706;2024-03-02T09:23:04;24.17;;;18.65;;
83026;SDS011;72842;56.038;12.706;2024-03-02T09:25:29;24.40;;;19.35;;
83026;SDS011;72842;56.038;12.706;2024-03-02T09:27:54;24.15;;;18.73;;
83026;SDS011;72842;56.038;12.706;2024-03-02T09:30:20;22.95;;;17.45;;
83026;SDS011;72842;56.038;12.706;2024-03-02T09:32:45;23.83;;;17.90;;
83026;SDS011;72842;56.038;12.706;2024-03-02T09:35:11;22.08;;;17.75;;
83026;SDS011;72842;56.038;12.706;2024-03-02T09:37:37;24.58;;;16.70;;
83026;SDS011;72842;56.038;12.706;2024-03-02T09:40:03;22.02;;;17.05;;
83026;SDS011;72842;56.038;12.706;2024-03-02T09:42:29;21.55;;;16.75;;
83026;SDS011;72842;56.038;12.706;2024-03-02T09:44:55;25.95;;;18.13;;
83026;SDS011;72842;56.038;12.706;2024-03-02T09:47:21;22.67;;;17.60;;
83026;SDS011;72842;56.038;12.706;2024-03-02T09:49:47;20.35;;;16.42;;
83026;SDS011;72842;56.038;12.706;2024-03-02T09:52:13;22.30;;;17.67;;
83026;SDS011;72842;56.038;12.706;2024-03-02T09:54:39;25.23;;;18.05;;
83026;SDS011;72842;56.038;12.706;2024-03-02T09:57:05;22.77;;;17.10;;
83026;SDS011;72842;56.038;12.706;2024-03-02T09:59:30;21.13;;;16.20;;
83026;SDS011;72842;56.038;12.706;2024-03-02T10:04:31;20.52;;;14.57;;
83026;SDS011;72842;56.038;12.706;2024-03-02T10:07:12;19.83;;;17.73;;
83026;SDS011;72842;56.038;12.706;2024-03-02T10:09:43;20.30;;;14.77;;
83026;SDS011;72842;56.038;12.706;2024-03-02T10:12:11;22.08;;;15.90;;
83026;SDS011;72842;56.038;12.706;2024-03-02T10:14:37;19.10;;;15.82;;
83026;SDS011;72842;56.038;12.706;2024-03-02T10:17:03;20.75;;;15.48;;
83026;SDS011;72842;56.038;12.706;2024-03-02T10:19:31;19.55;;;15.18;;
83026;SDS011;72842;56.038;12.706;2024-03-02T10:21:58;19.85;;;15.88;;
83026;SDS011;72842;56.038;12.706;2024-03-02T10:24:24;18.67;;;14.43;;
83026;SDS011;72842;56.038;12.706;2024-03-02T10:26:50;19.23;;;16.00;;
83026;SDS011;72842;56.038;12.706;2024-03-02T10:29:17;21.48;;;16.40;;
83026;SDS011;72842;56.038;12.706;2024-03-02T10:31:43;18.13;;;14.27;;
83026;SDS011;72842;56.038;12.706;2024-03-02T10:34:10;21.05;;;16.17;;
83026;SDS011;72842;56.038;12.706;2024-03-02T10:36:37;18.60;;;14.20;;
83026;SDS011;72842;56.038;12.706;2024-03-02T10:39:06;20.73;;;14.27;;
83026;SDS011;72842;56.038;12.706;2024-03-02T10:41:36;21.70;;;14.90;;
83026;SDS011;72842;56.038;12.706;2024-03-02T10:44:04;19.63;;;14.65;;
83026;SDS011;72842;56.038;12.706;2024-03-02T10:46:31;19.63;;;15.98;;
83026;SDS011;72842;56.038;12.706;2024-03-02T10:48:58;21.52;;;16.05;;
83026;SDS011;72842;56.038;12.706;2024-03-02T10:51:28;20.08;;;14.95;;
83026;SDS011;72842;56.038;12.706;2024-03-02T10:53:57;21.10;;;15.90;;
83026;SDS011;72842;56.038;12.706;2024-03-02T10:56:30;21.13;;;15.60;;
83026;SDS011;72842;56.038;12.706;2024-03-02T10:59:03;23.67;;;16.85;;
83026;SDS011;72842;56.038;12.706;2024-03-02T11:01:29;21.80;;;14.73;;
83026;SDS011;72842;56.038;12.706;2024-03-02T11:03:57;24.45;;;16.98;;
83026;SDS011;72842;56.038;12.706;2024-03-02T11:06:24;20.27;;;14.93;;
83026;SDS011;72842;56.038;12.706;2024-03-02T11:08:53;20.70;;;16.27;;
83026;SDS011;72842;56.038;12.706;2024-03-02T11:11:28;25.02;;;16.75;;
83026;SDS011;72842;56.038;12.706;2024-03-02T11:13:57;25.00;;;15.98;;
83026;SDS011;72842;56.038;12.706;2024-03-02T11:16:34;22.63;;;16.13;;
83026;SDS011;72842;56.038;12.706;2024-03-02T11:19:14;23.95;;;16.73;;
83026;SDS011;72842;56.038;12.706;2024-03-02T11:21:41;26.13;;;17.75;;
83026;SDS011;72842;56.038;12.706;2024-03-02T11:27:09;25.42;;;18.38;;
83026;SDS011;72842;56.038;12.706;2024-03-02T11:32:04;29.92;;;18.55;;
83026;SDS011;72842;56.038;12.706;2024-03-02T11:34:40;27.10;;;18.92;;
83026;SDS011;72842;56.038;12.706;2024-03-02T11:37:12;30.20;;;21.05;;
83026;SDS011;72842;56.038;12.706;2024-03-02T11:39:38;30.42;;;19.05;;
83026;SDS011;72842;56.038;12.706;2024-03-02T11:42:07;30.90;;;20.40;;
83026;SDS011;72842;56.038;12.706;2024-03-02T11:44:34;31.25;;;19.75;;
83026;SDS011;72842;56.038;12.706;2024-03-02T11:47:01;33.42;;;18.95;;
83026;SDS011;72842;56.038;12.706;2024-03-02T11:52:12;34.60;;;19.67;;
83026;SDS011;72842;56.038;12.706;2024-03-02T11:54:40;29.88;;;19.38;;
83026;SDS011;72842;56.038;12.706;2024-03-02T11:57:11;36.17;;;22.90;;
83026;SDS011;72842;56.038;12.706;2024-03-02T11:59:38;32.80;;;20.33;;
83026;SDS011;72842;56.038;12.706;2024-03-02T12:02:04;34.65;;;20.90;;
83026;SDS011;72842;56.038;12.706;2024-03-02T12:04:30;34.88;;;20.85;;
83026;SDS011;72842;56.038;12.706;2024-03-02T12:06:56;37.10;;;21.50;;
83026;SDS011;72842;56.038;12.706;2024-03-02T12:09:25;33.00;;;19.88;;
83026;SDS011;72842;56.038;12.706;2024-03-02T12:12:03;37.40;;;22.00;;
83026;SDS011;72842;56.038;12.706;2024-03-02T12:14:33;34.00;;;22.13;;
83026;SDS011;72842;56.038;12.706;2024-03-02T12:17:00;35.65;;;22.30;;
83026;SDS011;72842;56.038;12.706;2024-03-02T12:19:26;35.60;;;23.40;;
83026;SDS011;72842;56.038;12.706;2024-03-02T12:21:52;37.53;;;22.55;;
83026;SDS011;72842;56.038;12.706;2024-03-02T12:24:20;40.45;;;22.67;;
83026;SDS011;72842;56.038;12.706;2024-03-02T12:26:46;39.25;;;24.48;;
83026;SDS011;72842;56.038;12.706;2024-03-02T12:29:13;39.33;;;23.75;;
83026;SDS011;72842;56.038;12.706;2024-03-02T12:31:40;39.47;;;22.02;;
83026;SDS011;72842;56.038;12.706;2024-03-02T12:34:05;37.92;;;22.55;;
83026;SDS011;72842;56.038;12.706;2024-03-02T12:36:36;37.08;;;24.48;;
83026;SDS011;72842;56.038;12.706;2024-03-02T12:39:06;39.72;;;23.13;;
83026;SDS011;72842;56.038;12.706;2024-03-02T12:41:35;37.13;;;22.65;;
83026;SDS011;72842;56.038;12.706;2024-03-02T12:44:02;37.25;;;23.02;;
83026;SDS011;72842;56.038;12.706;2024-03-02T12:46:27;38.15;;;22.52;;
83026;SDS011;72842;56.038;12.706;2024-03-02T12:48:53;38.10;;;25.90;;
83026;SDS011;72842;56.038;12.706;2024-03-02T12:51:18;38.00;;;23.58;;
83026;SDS011;72842;56.038;12.706;2024-03-02T12:53:44;43.50;;;25.38;;
83026;SDS011;72842;56.038;12.706;2024-03-02T12:56:09;38.83;;;20.83;;
83026;SDS011;72842;56.038;12.706;2024-03-02T12:58:38;40.70;;;25.13;;
83026;SDS011;72842;56.038;12.706;2024-03-02T13:01:09;39.78;;;24.98;;
83026;SDS011;72842;56.038;12.706;2024-03-02T13:03:38;37.13;;;21.02;;
83026;SDS011;72842;56.038;12.706;2024-03-02T13:06:04;33.95;;;22.33;;
83026;SDS011;72842;56.038;12.706;2024-03-02T13:08:31;42.22;;;22.92;;
83026;SDS011;72842;56.038;12.706;2024-03-02T13:10:57;38.42;;;24.13;;
83026;SDS011;72842;56.038;12.706;2024-03-02T13:13:22;40.72;;;23.60;;
83026;SDS011;72842;56.038;12.706;2024-03-02T13:15:48;39.42;;;22.92;;
83026;SDS011;72842;56.038;12.706;2024-03-02T13:18:13;33.28;;;22.25;;
83026;SDS011;72842;56.038;12.706;2024-03-02T13:20:39;35.92;;;22.52;;
83026;SDS011;72842;56.038;12.706;2024-03-02T13:23:05;35.53;;;22.63;;
83026;SDS011;72842;56.038;12.706;2024-03-02T13:25:30;37.58;;;22.30;;
83026;SDS011;72842;56.038;12.706;2024-03-02T13:27:56;37.13;;;20.77;;
83026;SDS011;72842;56.038;12.706;2024-03-02T13:30:23;36.42;;;21.20;;
83026;SDS011;72842;56.038;12.706;2024-03-02T13:32:48;36.85;;;23.70;;
83026;SDS011;72842;56.038;12.706;2024-03-02T13:35:14;35.45;;;20.15;;
83026;SDS011;72842;56.038;12.706;2024-03-02T13:37:39;35.35;;;23.10;;
83026;SDS011;72842;56.038;12.706;2024-03-02T13:40:05;36.40;;;21.95;;
83026;SDS011;72842;56.038;12.706;2024-03-02T13:42:31;34.10;;;20.35;;
83026;SDS011;72842;56.038;12.706;2024-03-02T13:44:56;36.58;;;23.08;;
83026;SDS011;72842;56.038;12.706;2024-03-02T13:47:22;35.58;;;23.35;;
83026;SDS011;72842;56.038;12.706;2024-03-02T13:49:47;35.45;;;22.10;;
83026;SDS011;72842;56.038;12.706;2024-03-02T13:52:14;41.30;;;20.95;;
83026;SDS011;72842;56.038;12.706;2024-03-02T13:54:42;34.47;;;19.88;;
83026;SDS011;72842;56.038;12.706;2024-03-02T13:57:09;40.90;;;23.63;;
83026;SDS011;72842;56.038;12.706;2024-03-02T13:59:35;39.53;;;23.85;;
83026;SDS011;72842;56.038;12.706;2024-03-02T14:02:01;38.35;;;22.48;;
83026;SDS011;72842;56.038;12.706;2024-03-02T14:04:34;39.13;;;21.05;;
83026;SDS011;72842;56.038;12.706;2024-03-02T14:07:00;37.30;;;20.95;;
83026;SDS011;72842;56.038;12.706;2024-03-02T14:09:26;39.17;;;22.75;;
83026;SDS011;72842;56.038;12.706;2024-03-02T14:11:52;37.42;;;21.65;;
83026;SDS011;72842;56.038;12.706;2024-03-02T14:14:19;38.70;;;21.63;;